sensor_id;sensor_type;location;lat;lon;timestamp;temperature;humidity
47434;SHT31;33184;48.774;8.918;2022-10-16T00:03:07;14.88;89.30
47434;SHT31;33184;48.774;8.918;2022-10-16T00:08:28;14.79;89.72
47434;SHT31;33184;48.774;8.918;2022-10-16T00:13:51;14.72;90.12
47434;SHT31;33184;48.774;8.918;2022-10-16T00:19:12;14.75;89.95
47434;SHT31;33184;48.774;8.918;2022-10-16T00:24:32;14.75;90.16
47434;SHT31;33184;48.774;8.918;2022-10-16T00:29:53;14.81;90.05
47434;SHT31;33184;48.774;8.918;2022-10-16T00:35:14;14.81;89.92
47434;SHT31;33184;48.774;8.918;2022-10-16T00:40:35;14.75;89.80
47434;SHT31;33184;48.774;8.918;2022-10-16T00:45:55;14.76;89.98
47434;SHT31;33184;48.774;8.918;2022-10-16T00:51:18;14.79;89.93
47434;SHT31;33184;48.774;8.918;2022-10-16T00:56:41;14.79;89.88
47434;SHT31;33184;48.774;8.918;2022-10-16T01:02:03;14.82;89.89
47434;SHT31;33184;48.774;8.918;2022-10-16T01:18:37;14.82;89.85
47434;SHT31;33184;48.774;8.918;2022-10-16T01:24:23;14.82;89.80
47434;SHT31;33184;48.774;8.918;2022-10-16T01:40:51;14.88;89.64
47434;SHT31;33184;48.774;8.918;2022-10-16T01:46:13;14.99;89.36
47434;SHT31;33184;48.774;8.918;2022-10-16T01:51:35;14.99;89.17
47434;SHT31;33184;48.774;8.918;2022-10-16T01:56:58;14.92;89.16
47434;SHT31;33184;48.774;8.918;2022-10-16T02:02:20;14.86;89.48
47434;SHT31;33184;48.774;8.918;2022-10-16T02:07:42;14.88;89.51
47434;SHT31;33184;48.774;8.918;2022-10-16T02:13:14;14.98;88.85
47434;SHT31;33184;48.774;8.918;2022-10-16T02:18:36;15.02;88.67
47434;SHT31;33184;48.774;8.918;2022-10-16T02:24:05;15.00;88.65
47434;SHT31;33184;48.774;8.918;2022-10-16T02:29:28;14.96;88.63
47434;SHT31;33184;48.774;8.918;2022-10-16T02:34:50;14.95;88.50
47434;SHT31;33184;48.774;8.918;2022-10-16T02:40:12;14.95;88.42
47434;SHT31;33184;48.774;8.918;2022-10-16T02:45:32;14.96;88.42
47434;SHT31;33184;48.774;8.918;2022-10-16T02:50:53;14.98;88.16
47434;SHT31;33184;48.774;8.918;2022-10-16T02:56:14;14.95;88.11
47434;SHT31;33184;48.774;8.918;2022-10-16T03:01:34;14.91;88.20
47434;SHT31;33184;48.774;8.918;2022-10-16T03:06:55;14.85;88.21
47434;SHT31;33184;48.774;8.918;2022-10-16T03:12:15;14.75;88.69
47434;SHT31;33184;48.774;8.918;2022-10-16T03:17:36;14.72;88.86
47434;SHT31;33184;48.774;8.918;2022-10-16T03:22:56;14.76;88.75
47434;SHT31;33184;48.774;8.918;2022-10-16T03:28:17;14.78;88.64
47434;SHT31;33184;48.774;8.918;2022-10-16T03:33:38;14.72;88.61
47434;SHT31;33184;48.774;8.918;2022-10-16T03:38:58;14.65;88.51
47434;SHT31;33184;48.774;8.918;2022-10-16T03:44:19;14.50;88.87
47434;SHT31;33184;48.774;8.918;2022-10-16T03:49:39;14.42;89.13
47434;SHT31;33184;48.774;8.918;2022-10-16T03:55:00;14.42;89.42
47434;SHT31;33184;48.774;8.918;2022-10-16T04:00:21;14.31;89.48
47434;SHT31;33184;48.774;8.918;2022-10-16T04:05:41;14.27;89.64
47434;SHT31;33184;48.774;8.918;2022-10-16T04:11:03;14.18;89.75
47434;SHT31;33184;48.774;8.918;2022-10-16T04:16:23;14.13;90.07
47434;SHT31;33184;48.774;8.918;2022-10-16T04:21:44;14.10;90.06
47434;SHT31;33184;48.774;8.918;2022-10-16T04:27:04;14.03;90.28
47434;SHT31;33184;48.774;8.918;2022-10-16T04:32:25;14.06;90.28
47434;SHT31;33184;48.774;8.918;2022-10-16T04:37:46;14.04;90.24
47434;SHT31;33184;48.774;8.918;2022-10-16T04:43:07;14.04;90.57
47434;SHT31;33184;48.774;8.918;2022-10-16T04:48:27;14.04;90.69
47434;SHT31;33184;48.774;8.918;2022-10-16T04:53:48;14.03;90.71
47434;SHT31;33184;48.774;8.918;2022-10-16T04:59:09;14.04;90.50
47434;SHT31;33184;48.774;8.918;2022-10-16T05:04:29;14.01;90.30
47434;SHT31;33184;48.774;8.918;2022-10-16T05:09:50;13.97;90.42
47434;SHT31;33184;48.774;8.918;2022-10-16T05:15:11;13.86;90.50
47434;SHT31;33184;48.774;8.918;2022-10-16T05:20:31;13.86;90.56
47434;SHT31;33184;48.774;8.918;2022-10-16T05:25:56;13.87;90.69
47434;SHT31;33184;48.774;8.918;2022-10-16T05:31:18;13.93;90.82
47434;SHT31;33184;48.774;8.918;2022-10-16T05:36:39;13.89;90.96
47434;SHT31;33184;48.774;8.918;2022-10-16T05:42:00;13.83;90.97
47434;SHT31;33184;48.774;8.918;2022-10-16T05:47:20;13.79;91.20
47434;SHT31;33184;48.774;8.918;2022-10-16T05:52:41;13.82;91.31
47434;SHT31;33184;48.774;8.918;2022-10-16T05:58:01;13.82;91.38
47434;SHT31;33184;48.774;8.918;2022-10-16T06:03:22;13.85;91.48
47434;SHT31;33184;48.774;8.918;2022-10-16T06:08:45;13.85;91.52
47434;SHT31;33184;48.774;8.918;2022-10-16T06:14:05;13.85;91.55
47434;SHT31;33184;48.774;8.918;2022-10-16T06:19:29;13.80;91.58
47434;SHT31;33184;48.774;8.918;2022-10-16T06:24:49;13.87;91.72
47434;SHT31;33184;48.774;8.918;2022-10-16T06:30:10;13.85;91.77
47434;SHT31;33184;48.774;8.918;2022-10-16T06:35:30;13.87;91.88
47434;SHT31;33184;48.774;8.918;2022-10-16T06:40:53;13.94;91.81
47434;SHT31;33184;48.774;8.918;2022-10-16T06:46:16;14.06;91.75
47434;SHT31;33184;48.774;8.918;2022-10-16T06:51:38;14.14;91.63
47434;SHT31;33184;48.774;8.918;2022-10-16T06:57:01;14.20;91.47
47434;SHT31;33184;48.774;8.918;2022-10-16T07:02:22;14.30;91.43
47434;SHT31;33184;48.774;8.918;2022-10-16T07:07:42;14.40;91.37
47434;SHT31;33184;48.774;8.918;2022-10-16T07:13:03;14.50;91.32
47434;SHT31;33184;48.774;8.918;2022-10-16T07:18:23;14.51;91.09
47434;SHT31;33184;48.774;8.918;2022-10-16T07:23:54;14.55;90.99
47434;SHT31;33184;48.774;8.918;2022-10-16T07:29:17;14.74;90.59
47434;SHT31;33184;48.774;8.918;2022-10-16T07:34:38;14.93;89.86
47434;SHT31;33184;48.774;8.918;2022-10-16T07:39:59;15.02;89.80
47434;SHT31;33184;48.774;8.918;2022-10-16T07:45:20;15.06;89.80
47434;SHT31;33184;48.774;8.918;2022-10-16T07:50:40;15.22;89.66
47434;SHT31;33184;48.774;8.918;2022-10-16T07:56:04;15.39;89.50
47434;SHT31;33184;48.774;8.918;2022-10-16T08:01:25;15.70;88.65
47434;SHT31;33184;48.774;8.918;2022-10-16T08:06:46;15.95;87.74
47434;SHT31;33184;48.774;8.918;2022-10-16T08:12:07;16.14;86.08
47434;SHT31;33184;48.774;8.918;2022-10-16T08:17:28;16.26;86.20
47434;SHT31;33184;48.774;8.918;2022-10-16T08:22:48;16.32;84.73
47434;SHT31;33184;48.774;8.918;2022-10-16T08:28:10;16.36;84.52
47434;SHT31;33184;48.774;8.918;2022-10-16T08:33:31;16.43;84.26
47434;SHT31;33184;48.774;8.918;2022-10-16T08:38:51;16.52;84.02
47434;SHT31;33184;48.774;8.918;2022-10-16T08:50:13;16.62;85.00
47434;SHT31;33184;48.774;8.918;2022-10-16T08:55:42;16.69;84.89
47434;SHT31;33184;48.774;8.918;2022-10-16T09:01:11;16.73;85.05
47434;SHT31;33184;48.774;8.918;2022-10-16T09:12:44;16.97;84.14
47434;SHT31;33184;48.774;8.918;2022-10-16T09:18:34;17.16;82.40
47434;SHT31;33184;48.774;8.918;2022-10-16T09:24:00;17.27;81.55
47434;SHT31;33184;48.774;8.918;2022-10-16T09:29:25;17.34;82.15
47434;SHT31;33184;48.774;8.918;2022-10-16T09:34:49;17.45;82.51
47434;SHT31;33184;48.774;8.918;2022-10-16T09:40:31;17.57;82.55
47434;SHT31;33184;48.774;8.918;2022-10-16T09:45:59;17.82;82.25
47434;SHT31;33184;48.774;8.918;2022-10-16T09:51:31;18.42;81.04
47434;SHT31;33184;48.774;8.918;2022-10-16T09:56:52;18.74;79.15
47434;SHT31;33184;48.774;8.918;2022-10-16T10:02:16;18.89;78.25
47434;SHT31;33184;48.774;8.918;2022-10-16T10:07:41;19.08;77.88
47434;SHT31;33184;48.774;8.918;2022-10-16T10:13:02;19.25;77.56
47434;SHT31;33184;48.774;8.918;2022-10-16T10:18:23;19.34;77.83
47434;SHT31;33184;48.774;8.918;2022-10-16T10:23:54;19.36;77.68
47434;SHT31;33184;48.774;8.918;2022-10-16T10:35:15;19.90;72.42
47434;SHT31;33184;48.774;8.918;2022-10-16T10:41:07;20.55;68.78
47434;SHT31;33184;48.774;8.918;2022-10-16T10:52:34;20.91;67.38
47434;SHT31;33184;48.774;8.918;2022-10-16T11:09:36;20.99;66.38
47434;SHT31;33184;48.774;8.918;2022-10-16T11:15:05;21.02;65.68
47434;SHT31;33184;48.774;8.918;2022-10-16T11:20:34;21.13;65.60
47434;SHT31;33184;48.774;8.918;2022-10-16T11:26:02;21.51;66.04
47434;SHT31;33184;48.774;8.918;2022-10-16T11:31:39;21.78;65.01
47434;SHT31;33184;48.774;8.918;2022-10-16T11:37:23;22.11;63.41
47434;SHT31;33184;48.774;8.918;2022-10-16T11:42:50;21.94;63.38
47434;SHT31;33184;48.774;8.918;2022-10-16T11:48:20;22.14;63.81
47434;SHT31;33184;48.774;8.918;2022-10-16T11:59:58;21.82;63.74
47434;SHT31;33184;48.774;8.918;2022-10-16T12:11:30;21.90;64.28
47434;SHT31;33184;48.774;8.918;2022-10-16T12:16:57;22.15;64.69
47434;SHT31;33184;48.774;8.918;2022-10-16T12:22:19;22.58;61.68
47434;SHT31;33184;48.774;8.918;2022-10-16T12:27:40;22.52;60.92
47434;SHT31;33184;48.774;8.918;2022-10-16T12:33:25;22.89;62.16
47434;SHT31;33184;48.774;8.918;2022-10-16T12:38:49;22.65;62.11
47434;SHT31;33184;48.774;8.918;2022-10-16T12:44:23;22.38;62.61
47434;SHT31;33184;48.774;8.918;2022-10-16T12:49:49;22.33;62.55
47434;SHT31;33184;48.774;8.918;2022-10-16T12:55:18;23.28;61.44
47434;SHT31;33184;48.774;8.918;2022-10-16T13:01:21;23.02;59.79
47434;SHT31;33184;48.774;8.918;2022-10-16T13:24:25;22.69;60.60
47434;SHT31;33184;48.774;8.918;2022-10-16T13:35:53;23.87;57.63
47434;SHT31;33184;48.774;8.918;2022-10-16T13:41:18;24.25;54.26
47434;SHT31;33184;48.774;8.918;2022-10-16T13:46:38;23.79;57.01
47434;SHT31;33184;48.774;8.918;2022-10-16T13:51:59;23.40;59.29
47434;SHT31;33184;48.774;8.918;2022-10-16T13:57:23;22.90;58.11
47434;SHT31;33184;48.774;8.918;2022-10-16T14:02:44;23.12;60.29
47434;SHT31;33184;48.774;8.918;2022-10-16T14:08:05;22.83;63.23
47434;SHT31;33184;48.774;8.918;2022-10-16T14:13:43;22.32;64.03
47434;SHT31;33184;48.774;8.918;2022-10-16T14:19:05;22.14;65.47
47434;SHT31;33184;48.774;8.918;2022-10-16T14:24:35;22.00;64.86
47434;SHT31;33184;48.774;8.918;2022-10-16T14:30:20;22.00;65.09
47434;SHT31;33184;48.774;8.918;2022-10-16T14:35:41;22.04;64.77
47434;SHT31;33184;48.774;8.918;2022-10-16T14:41:03;21.91;66.89
47434;SHT31;33184;48.774;8.918;2022-10-16T14:46:36;21.81;67.56
47434;SHT31;33184;48.774;8.918;2022-10-16T14:51:57;21.74;67.44
47434;SHT31;33184;48.774;8.918;2022-10-16T14:57:19;21.49;68.60
47434;SHT31;33184;48.774;8.918;2022-10-16T15:02:41;21.51;69.25
47434;SHT31;33184;48.774;8.918;2022-10-16T15:08:02;21.42;69.32
47434;SHT31;33184;48.774;8.918;2022-10-16T15:13:24;21.47;69.73
47434;SHT31;33184;48.774;8.918;2022-10-16T15:18:45;21.64;69.28
47434;SHT31;33184;48.774;8.918;2022-10-16T15:24:09;21.68;69.20
47434;SHT31;33184;48.774;8.918;2022-10-16T15:29:31;21.51;69.95
47434;SHT31;33184;48.774;8.918;2022-10-16T15:34:52;21.33;70.37
47434;SHT31;33184;48.774;8.918;2022-10-16T15:40:13;21.15;70.83
47434;SHT31;33184;48.774;8.918;2022-10-16T15:45:33;21.09;70.97
47434;SHT31;33184;48.774;8.918;2022-10-16T15:50:54;21.02;71.31
47434;SHT31;33184;48.774;8.918;2022-10-16T15:56:14;20.99;71.50
47434;SHT31;33184;48.774;8.918;2022-10-16T16:01:36;20.86;71.99
47434;SHT31;33184;48.774;8.918;2022-10-16T16:06:57;20.76;72.55
47434;SHT31;33184;48.774;8.918;2022-10-16T16:12:17;20.59;73.34
47434;SHT31;33184;48.774;8.918;2022-10-16T16:17:38;20.34;74.49
47434;SHT31;33184;48.774;8.918;2022-10-16T16:22:59;20.27;74.99
47434;SHT31;33184;48.774;8.918;2022-10-16T16:28:19;20.18;74.34
47434;SHT31;33184;48.774;8.918;2022-10-16T16:33:40;20.04;74.77
47434;SHT31;33184;48.774;8.918;2022-10-16T16:39:01;19.93;75.74
47434;SHT31;33184;48.774;8.918;2022-10-16T16:44:21;19.76;76.28
47434;SHT31;33184;48.774;8.918;2022-10-16T16:49:42;19.53;76.97
47434;SHT31;33184;48.774;8.918;2022-10-16T16:55:03;19.39;77.75
47434;SHT31;33184;48.774;8.918;2022-10-16T17:00:23;19.16;78.04
47434;SHT31;33184;48.774;8.918;2022-10-16T17:05:55;18.84;79.19
47434;SHT31;33184;48.774;8.918;2022-10-16T17:11:21;18.60;80.41
47434;SHT31;33184;48.774;8.918;2022-10-16T17:16:42;18.42;80.76
47434;SHT31;33184;48.774;8.918;2022-10-16T17:22:07;18.33;80.99
47434;SHT31;33184;48.774;8.918;2022-10-16T17:27:28;18.12;80.65
47434;SHT31;33184;48.774;8.918;2022-10-16T17:32:49;17.93;81.32
47434;SHT31;33184;48.774;8.918;2022-10-16T17:38:10;17.82;81.64
47434;SHT31;33184;48.774;8.918;2022-10-16T17:43:31;17.69;81.65
47434;SHT31;33184;48.774;8.918;2022-10-16T17:48:53;17.61;82.03
47434;SHT31;33184;48.774;8.918;2022-10-16T17:54:14;17.57;82.02
47434;SHT31;33184;48.774;8.918;2022-10-16T17:59:35;17.48;81.98
47434;SHT31;33184;48.774;8.918;2022-10-16T18:04:56;17.37;81.91
47434;SHT31;33184;48.774;8.918;2022-10-16T18:10:16;17.18;82.67
47434;SHT31;33184;48.774;8.918;2022-10-16T18:15:37;17.03;82.43
47434;SHT31;33184;48.774;8.918;2022-10-16T18:21:04;16.93;83.34
47434;SHT31;33184;48.774;8.918;2022-10-16T18:26:25;16.82;83.52
47434;SHT31;33184;48.774;8.918;2022-10-16T18:31:46;16.69;84.09
47434;SHT31;33184;48.774;8.918;2022-10-16T18:37:07;16.56;84.08
47434;SHT31;33184;48.774;8.918;2022-10-16T18:42:28;16.49;84.29
47434;SHT31;33184;48.774;8.918;2022-10-16T18:47:48;16.39;84.23
47434;SHT31;33184;48.774;8.918;2022-10-16T18:53:09;16.31;84.15
47434;SHT31;33184;48.774;8.918;2022-10-16T18:58:30;16.24;84.53
47434;SHT31;33184;48.774;8.918;2022-10-16T19:03:58;16.25;84.54
47434;SHT31;33184;48.774;8.918;2022-10-16T19:09:22;16.18;84.62
47434;SHT31;33184;48.774;8.918;2022-10-16T19:14:43;16.12;84.70
47434;SHT31;33184;48.774;8.918;2022-10-16T19:20:04;16.11;84.61
47434;SHT31;33184;48.774;8.918;2022-10-16T19:25:25;16.14;84.56
47434;SHT31;33184;48.774;8.918;2022-10-16T19:30:47;16.00;84.50
47434;SHT31;33184;48.774;8.918;2022-10-16T19:36:37;15.92;84.43
47434;SHT31;33184;48.774;8.918;2022-10-16T19:41:58;15.82;84.32
47434;SHT31;33184;48.774;8.918;2022-10-16T19:47:21;15.73;84.74
47434;SHT31;33184;48.774;8.918;2022-10-16T19:52:41;15.68;84.89
47434;SHT31;33184;48.774;8.918;2022-10-16T19:58:02;15.64;84.51
47434;SHT31;33184;48.774;8.918;2022-10-16T20:03:23;15.67;84.30
47434;SHT31;33184;48.774;8.918;2022-10-16T20:08:44;15.68;84.15
47434;SHT31;33184;48.774;8.918;2022-10-16T20:14:07;15.68;84.00
47434;SHT31;33184;48.774;8.918;2022-10-16T20:19:28;15.56;83.90
47434;SHT31;33184;48.774;8.918;2022-10-16T20:24:48;15.49;84.11
47434;SHT31;33184;48.774;8.918;2022-10-16T20:30:09;15.39;84.21
47434;SHT31;33184;48.774;8.918;2022-10-16T20:35:37;15.37;84.26
47434;SHT31;33184;48.774;8.918;2022-10-16T20:41:02;15.32;84.52
47434;SHT31;33184;48.774;8.918;2022-10-16T20:46:25;15.19;84.61
47434;SHT31;33184;48.774;8.918;2022-10-16T20:51:46;15.12;84.75
47434;SHT31;33184;48.774;8.918;2022-10-16T20:57:09;15.09;85.02
47434;SHT31;33184;48.774;8.918;2022-10-16T21:02:29;15.06;84.91
47434;SHT31;33184;48.774;8.918;2022-10-16T21:07:50;15.00;85.13
47434;SHT31;33184;48.774;8.918;2022-10-16T21:13:11;14.92;85.17
47434;SHT31;33184;48.774;8.918;2022-10-16T21:18:31;14.93;85.28
47434;SHT31;33184;48.774;8.918;2022-10-16T21:23:53;14.89;85.12
47434;SHT31;33184;48.774;8.918;2022-10-16T21:29:15;14.92;85.08
47434;SHT31;33184;48.774;8.918;2022-10-16T21:34:35;14.93;85.07
47434;SHT31;33184;48.774;8.918;2022-10-16T21:39:56;14.92;85.01
47434;SHT31;33184;48.774;8.918;2022-10-16T21:45:17;14.85;85.19
47434;SHT31;33184;48.774;8.918;2022-10-16T21:50:37;14.75;85.52
47434;SHT31;33184;48.774;8.918;2022-10-16T21:55:58;14.72;85.39
47434;SHT31;33184;48.774;8.918;2022-10-16T22:01:20;14.67;85.54
47434;SHT31;33184;48.774;8.918;2022-10-16T22:06:41;14.60;85.69
47434;SHT31;33184;48.774;8.918;2022-10-16T22:12:02;14.60;85.81
47434;SHT31;33184;48.774;8.918;2022-10-16T22:17:22;14.57;85.96
47434;SHT31;33184;48.774;8.918;2022-10-16T22:22:43;14.47;86.05
47434;SHT31;33184;48.774;8.918;2022-10-16T22:28:04;14.45;86.21
47434;SHT31;33184;48.774;8.918;2022-10-16T22:33:24;14.44;86.17
47434;SHT31;33184;48.774;8.918;2022-10-16T22:38:45;14.42;86.30
47434;SHT31;33184;48.774;8.918;2022-10-16T22:44:10;14.37;85.94
47434;SHT31;33184;48.774;8.918;2022-10-16T22:49:31;14.30;85.94
47434;SHT31;33184;48.774;8.918;2022-10-16T22:54:54;14.30;86.32
47434;SHT31;33184;48.774;8.918;2022-10-16T23:00:17;14.18;86.02
47434;SHT31;33184;48.774;8.918;2022-10-16T23:05:41;14.07;86.22
47434;SHT31;33184;48.774;8.918;2022-10-16T23:11:07;14.01;86.59
47434;SHT31;33184;48.774;8.918;2022-10-16T23:16:27;13.99;86.77
47434;SHT31;33184;48.774;8.918;2022-10-16T23:21:48;13.96;86.82
47434;SHT31;33184;48.774;8.918;2022-10-16T23:27:09;13.90;86.70
47434;SHT31;33184;48.774;8.918;2022-10-16T23:32:29;13.85;86.70
47434;SHT31;33184;48.774;8.918;2022-10-16T23:37:50;13.86;86.79
47434;SHT31;33184;48.774;8.918;2022-10-16T23:43:10;13.85;86.63
47434;SHT31;33184;48.774;8.918;2022-10-16T23:48:31;13.67;86.73
47434;SHT31;33184;48.774;8.918;2022-10-16T23:53:51;13.62;86.94
47434;SHT31;33184;48.774;8.918;2022-10-16T23:59:12;13.45;87.12
